Raisin, Texas
Current Conditions -  °F | °C
As of 1:51 PM on Saturday 25 Oct 2014 (Local Time) from KVCT Reporting Station
Clear Clear  
Wind Chill: 86°   Ceiling: Unl
Heat Index: 86°   Visibility: 10mi
Dew Point: 60°   Wind: 0mph
Humidity: 41%   Direction: NA
Pressure: 30.13"   Gusts: NA
Location:  28.877°N, 97.189°W
Report Text: KVCT 251851Z 00000KT 10SM CLR 30/16 A3013 RMK AO2 SLP200 T03000156
Loading
Personal Weather Stations






























Interactive Weather Map New forecast layout! Learn more

10-Day Weather Forecast

Advertisements
Track Severe Weather on mobile